Aeroporto :
LOGIN :

Iscrizione | Disclaimer

   EN    FR    IT 

 










Sommario :    VFR   VFR Marginale   IFR   IFR Intensivo   IFR Molto Intensivo
Visibilità : 
Base nubi : 
>= 8 km
>= 3000ft
5 / 8 km
1000 / 3000 ft
1500m / 5 km
500 / 1000 ft
800 / 1500m
200 / 500 ft
< 800m
< 200 ft
Simboli :   Temporali  Nebbia  Neve Forte  Precipitazioni Forti  Vento > 20 kt
SIGMETs :   Varie  Temporali  Ghiacco  Turbolenza  Onda orograficha  Ceneri Vulcaniche






- Altitudine del aeroporto : 963 ft
- Codice IATA : TGM


LRTM - Transilvania Târgu Mureş Int.

ULTIMO METAR :
  • 260300Z AUTO 00000KT 7000 FEW038/// OVC069/// 07/07 Q1022

METARs OBSOLETI :
  • 260230Z AUTO 03001KT 6000 FEW055/// OVC097/// 07/06 Q1022
  • 260200Z AUTO 07002KT 6000 FEW043/// BKN100/// 07/06 Q1022
  • 260130Z AUTO 08003KT 9999 FEW071/// SCT099/// 07/06 Q1022
  • 260100Z AUTO 07003KT 9999 OVC094/// 07/07 Q1022
  • 260030Z AUTO 02001KT 9999 OVC091/// 07/07 Q1022

TAF TAF LRTM
Valido dal 26 a 03 ore il 26 a 12 ore UTC


260200Z 2603/2612 VRB04KT 9999 SCT040
PROB30
TEMPO 2603/2605 5000 BR
TEMPO 2605/2608 5000 SHRA SCT040CB
TEMPO 2608/2612 5000 TSRA SCT030CB BKN040



MetMap, La meteo Aeronautica in un colpo d'occhio ! - Copyright ORBIFLY Dicembre 2007 - Disclaimer

ORBIFLY MET'MAP TEAM :

Programmazione e sviluppo : Alexandra Zaïnal
Concezione : Baudouin d'Aumeries
Aiuto per la programmazione : Marc-Olivier Méhu
Supporto tecnico e logistico : Manuel Goepfert
Aiuto per la traduzione : Arnaldo La Scala

Contatto : metmap@orbifly.com




FONTI E CREDITI :

   NOAA